Time;durP1;ratioP1;P1;durP2;ratioP2;P2;SDS_P1;SDS_P2;PMS_P1;PMS_P2;Temp;Humidity;BMP_temperature;BMP_pressure;BME280_temperature;BME280_humidity;BME280_pressure;Samples;Min_cycle;Max_cycle;Signal;HPM_P1;HPM_P2
2022/07/20 00:00:59;;;;;;;6.32;3.65;;;;;;;27.91;27.28;99670.69;5050797;28;20324;-90
2022/07/20 00:03:24;;;;;;;7.23;4.23;;;;;;;27.88;27.34;99677.06;5066471;28;20025;-90
2022/07/20 00:05:50;;;;;;;7.97;3.50;;;;;;;27.79;27.58;99675.41;5051430;28;20297;-76
2022/07/20 00:11:19;;;;;;;6.40;4.07;;;;;;;27.78;27.61;99673.00;5046769;28;20491;-76
2022/07/20 00:13:46;;;;;;;7.40;4.15;;;;;;;27.73;27.56;99671.31;5046567;28;20032;-79
2022/07/20 00:16:11;;;;;;;8.20;4.10;;;;;;;27.73;27.70;99677.72;5043036;28;20037;-79
2022/07/20 00:18:36;;;;;;;6.68;4.20;;;;;;;27.66;28.36;99668.44;5047088;28;20078;-79
2022/07/20 00:21:02;;;;;;;7.97;3.50;;;;;;;27.75;27.65;99660.56;5047404;28;20805;-81
2022/07/20 00:23:27;;;;;;;7.90;3.90;;;;;;;27.57;28.04;99661.16;5049034;28;20078;-80
2022/07/20 00:25:52;;;;;;;6.43;3.43;;;;;;;27.60;28.13;99674.38;5052251;28;20025;-91
2022/07/20 00:28:17;;;;;;;6.87;4.00;;;;;;;27.54;28.19;99666.75;5052648;28;20628;-90
2022/07/20 00:30:43;;;;;;;8.57;4.30;;;;;;;27.47;28.15;99670.25;5052716;28;20159;-90
2022/07/20 00:33:08;;;;;;;7.03;4.20;;;;;;;27.43;28.64;99666.63;5052905;28;20037;-90
2022/07/20 00:35:33;;;;;;;8.70;3.37;;;;;;;27.44;28.46;99666.22;5048658;28;20032;-79
2022/07/20 00:37:59;;;;;;;6.32;4.00;;;;;;;27.48;28.34;99664.25;5046706;28;20496;-79
2022/07/20 00:40:24;;;;;;;9.30;3.73;;;;;;;27.44;28.71;99666.22;5048346;28;20451;-81
2022/07/20 00:42:49;;;;;;;6.17;3.43;;;;;;;27.34;28.70;99662.13;5048394;28;20021;-80
2022/07/20 00:45:14;;;;;;;7.10;3.67;;;;;;;27.40;28.65;99662.56;5048192;28;20032;-81
2022/07/20 00:47:40;;;;;;;6.88;4.60;;;;;;;27.39;28.78;99656.19;5045714;28;20400;-80
2022/07/20 00:50:07;;;;;;;7.87;4.10;;;;;;;27.36;28.99;99653.34;5047371;28;20384;-79
2022/07/20 00:52:33;;;;;;;8.95;3.80;;;;;;;27.32;28.62;99653.31;5046890;28;20262;-79
2022/07/20 00:54:58;;;;;;;7.18;3.50;;;;;;;27.31;29.01;99648.91;5046530;28;20369;-77
2022/07/20 00:57:24;;;;;;;6.77;3.43;;;;;;;27.26;28.82;99652.03;5045632;28;20037;-76
2022/07/20 00:59:49;;;;;;;6.60;3.97;;;;;;;27.26;29.13;99652.03;5045067;28;20751;-76
2022/07/20 01:02:14;;;;;;;7.68;4.05;;;;;;;27.20;29.09;99648.78;5047011;28;20036;-79
2022/07/20 01:04:40;;;;;;;6.40;3.50;;;;;;;27.14;28.99;99645.53;5046612;28;20033;-78
2022/07/20 01:07:06;;;;;;;7.90;3.72;;;;;;;27.11;29.27;99642.69;5050656;28;20522;-86
2022/07/20 01:09:31;;;;;;;9.63;4.18;;;;;;;27.18;28.76;99645.56;5051914;28;20028;-86
2022/07/20 01:11:56;;;;;;;10.95;3.63;;;;;;;27.10;28.88;99644.69;5048487;28;20614;-78
2022/07/20 01:14:22;;;;;;;6.73;3.67;;;;;;;27.10;28.94;99641.88;5046338;28;20029;-79
2022/07/20 01:16:47;;;;;;;7.65;3.28;;;;;;;27.14;28.81;99627.94;5058866;28;20268;-75
2022/07/20 01:19:12;;;;;;;5.23;3.47;;;;;;;27.21;28.66;99630.00;5060740;28;20060;-75
2022/07/20 01:21:41;;;;;;;16.25;4.50;;;;;;;27.24;28.40;99627.25;5045455;28;20258;-75
2022/07/20 01:24:11;;;;;;;5.10;3.38;;;;;;;27.33;28.48;99624.16;5045239;28;20037;-75
2022/07/20 01:26:40;;;;;;;7.13;4.57;;;;;;;27.40;28.20;99617.81;5045700;28;20120;-79
2022/07/20 01:32:27;;;;;;;5.90;3.40;;;;;;;27.44;28.30;99617.88;5044063;28;20044;-79
2022/07/20 01:34:52;;;;;;;5.60;3.92;;;;;;;27.44;28.17;99610.25;5042742;28;20352;-79
2022/07/20 01:37:17;;;;;;;9.20;3.17;;;;;;;27.44;28.05;99601.84;5047659;28;20115;-80
2022/07/20 01:39:42;;;;;;;7.43;3.37;;;;;;;27.53;27.75;99620.34;5047176;28;20556;-80
2022/07/20 01:42:08;;;;;;;6.27;3.53;;;;;;;27.45;28.10;99608.28;5046356;28;20320;-77
2022/07/20 01:44:33;;;;;;;7.27;3.07;;;;;;;27.53;28.15;99609.13;5045228;28;20391;-77
2022/07/20 01:46:58;;;;;;;6.45;3.45;;;;;;;27.54;27.95;99617.13;5045644;28;20048;-75
2022/07/20 01:49:24;;;;;;;9.98;3.70;;;;;;;27.54;27.99;99600.34;5044283;28;20040;-75
2022/07/20 01:51:49;;;;;;;8.15;4.38;;;;;;;27.53;27.82;99607.16;5045325;28;20490;-76
2022/07/20 01:54:14;;;;;;;6.83;3.13;;;;;;;27.50;28.10;99605.13;5045061;28;20520;-76
2022/07/20 01:56:41;;;;;;;10.50;3.53;;;;;;;27.41;27.90;99607.44;5049778;28;20028;-86
2022/07/20 01:59:07;;;;;;;7.18;3.42;;;;;;;27.43;28.16;99610.66;5052688;28;20273;-86
2022/07/20 02:01:32;;;;;;;6.88;3.10;;;;;;;27.53;28.04;99609.13;5053600;28;20472;-90
2022/07/20 02:03:57;;;;;;;8.43;3.23;;;;;;;27.50;27.85;99610.72;5070060;28;20016;-90
2022/07/20 02:06:23;;;;;;;10.47;3.57;;;;;;;27.46;27.97;99604.28;5064202;28;20293;-86
2022/07/20 02:08:48;;;;;;;12.40;4.10;;;;;;;27.50;27.98;99605.13;5051766;28;20414;-86
2022/07/20 02:11:13;;;;;;;5.77;3.17;;;;;;;27.43;28.17;99602.25;5049219;28;20270;-79
2022/07/20 02:13:38;;;;;;;6.87;3.33;;;;;;;27.41;28.37;99608.25;5046025;28;20403;-79
2022/07/20 02:16:16;;;;;;;14.88;4.63;;;;;;;27.46;28.04;99598.69;5045780;28;20048;-79
2022/07/20 02:18:47;;;;;;;5.15;3.40;;;;;;;27.48;28.34;99602.69;5044226;28;20033;-79
2022/07/20 02:21:15;;;;;;;7.32;3.85;;;;;;;27.48;28.21;99601.91;5043685;28;20053;-76
2022/07/20 02:23:41;;;;;;;7.43;3.10;;;;;;;27.48;28.27;99602.69;5045204;28;20044;-76
2022/07/20 02:26:06;;;;;;;7.88;3.60;;;;;;;27.47;28.14;99595.50;5044556;28;20033;-76
2022/07/20 02:28:31;;;;;;;6.53;2.97;;;;;;;27.44;28.15;99590.66;5044862;28;20056;-76
2022/07/20 02:30:57;;;;;;;7.95;3.78;;;;;;;27.55;27.85;99598.34;5044640;28;20048;-77
2022/07/20 02:33:22;;;;;;;9.48;3.28;;;;;;;27.48;28.12;99585.13;5044336;28;20127;-77
2022/07/20 02:35:47;;;;;;;7.07;3.57;;;;;;;27.50;27.96;99594.72;5058829;28;20027;-90
2022/07/20 02:38:13;;;;;;;4.45;2.92;;;;;;;27.52;28.01;99585.94;5066303;28;20159;-90
2022/07/20 02:40:38;;;;;;;21.02;4.20;;;;;;;27.48;27.82;99587.94;5049914;28;20727;-77
2022/07/20 02:43:05;;;;;;;9.80;3.83;;;;;;;27.45;28.06;99585.88;5048898;28;20779;-77
2022/07/20 02:45:30;;;;;;;7.22;3.15;;;;;;;27.43;28.08;99579.88;5049327;28;20636;-80
2022/07/20 02:48:02;;;;;;;8.13;3.95;;;;;;;27.42;28.10;99586.66;5049513;28;20028;-79
2022/07/20 02:50:28;;;;;;;14.25;4.43;;;;;;;27.41;28.32;99585.03;5047940;28;20033;-80
2022/07/20 02:52:53;;;;;;;7.95;3.50;;;;;;;27.43;28.34;99582.66;5048043;28;20032;-79
2022/07/20 02:55:19;;;;;;;11.47;3.83;;;;;;;27.41;28.14;99590.63;5049530;28;20037;-88
2022/07/20 02:57:44;;;;;;;8.32;3.20;;;;;;;27.44;28.35;99584.28;5050281;28;20025;-76
2022/07/20 03:00:10;;;;;;;6.70;2.97;;;;;;;27.48;28.23;99585.13;5047762;28;20037;-76
2022/07/20 03:02:35;;;;;;;9.85;3.95;;;;;;;27.51;28.21;99584.34;5050000;28;20862;-80
2022/07/20 03:05:01;;;;;;;5.97;2.87;;;;;;;27.59;28.03;99577.63;5051323;28;20120;-81
2022/07/20 03:07:26;;;;;;;10.47;4.97;;;;;;;27.60;27.98;99582.00;5049641;28;20315;-77
2022/07/20 03:09:51;;;;;;;10.13;3.65;;;;;;;27.64;27.91;99576.47;5046587;28;20898;-77
2022/07/20 03:12:17;;;;;;;5.93;2.87;;;;;;;27.68;27.88;99582.91;5048221;28;20048;-77
2022/07/20 03:14:42;;;;;;;9.80;3.03;;;;;;;27.69;27.87;99581.69;5048045;28;20121;-77
2022/07/20 03:17:07;;;;;;;6.23;2.70;;;;;;;27.71;28.10;99579.31;5064448;28;20269;-86
2022/07/20 03:19:32;;;;;;;7.63;2.63;;;;;;;27.74;27.93;99588.97;5062208;28;20033;-85
2022/07/20 03:21:57;;;;;;;6.57;3.47;;;;;;;27.76;28.14;99583.78;5048889;28;20037;-78
2022/07/20 03:24:23;;;;;;;14.03;3.27;;;;;;;27.74;27.99;99586.16;5047370;28;20126;-78
2022/07/20 03:26:48;;;;;;;8.53;4.30;;;;;;;27.81;27.87;99589.03;5048298;28;20025;-79
2022/07/20 03:29:13;;;;;;;8.20;3.40;;;;;;;27.81;27.89;99577.00;5047657;28;20056;-79
2022/07/20 03:31:38;;;;;;;6.97;3.63;;;;;;;27.77;27.97;99563.00;5050755;28;20104;-86
2022/07/20 03:34:04;;;;;;;13.97;3.83;;;;;;;27.75;27.93;99565.38;5050885;28;20029;-87
2022/07/20 03:36:29;;;;;;;16.53;4.20;;;;;;;27.80;27.83;99578.22;5043731;28;20034;-86
2022/07/20 03:38:54;;;;;;;10.47;3.27;;;;;;;27.82;27.89;99582.25;5033934;28;20044;-86
2022/07/20 03:41:19;;;;;;;19.03;4.40;;;;;;;27.82;28.11;99582.25;5052163;28;20044;-78
2022/07/20 03:43:45;;;;;;;10.33;4.00;;;;;;;27.89;27.67;99580.69;5048532;28;20029;-79
2022/07/20 03:46:10;;;;;;;9.40;3.40;;;;;;;27.95;27.49;99585.53;5048180;28;20036;-76
2022/07/20 03:48:37;;;;;;;19.70;5.25;;;;;;;27.97;27.54;99576.72;5047164;28;20021;-76
2022/07/20 03:51:02;;;;;;;12.93;3.63;;;;;;;27.98;27.67;99578.34;5046796;28;20041;-76
2022/07/20 03:53:27;;;;;;;12.88;5.18;;;;;;;28.01;27.91;99588.75;5046600;28;20392;-75
2022/07/20 03:55:53;;;;;;;7.95;3.22;;;;;;;27.98;27.83;99589.53;5047093;28;20033;-75
2022/07/20 03:58:18;;;;;;;8.83;3.57;;;;;;;27.96;27.84;99592.75;5046962;28;20037;-75
2022/07/20 04:00:43;;;;;;;9.47;3.33;;;;;;;28.01;27.85;99587.97;5046792;28;20403;-75
2022/07/20 04:03:08;;;;;;;11.52;3.40;;;;;;;27.96;27.80;99591.94;5048206;28;20265;-79
2022/07/20 04:05:34;;;;;;;8.50;3.80;;;;;;;27.98;27.78;99581.16;5048079;28;20179;-79
2022/07/20 04:07:59;;;;;;;6.83;3.50;;;;;;;27.98;27.77;99575.53;5048398;28;20025;-79
2022/07/20 04:10:24;;;;;;;6.80;3.22;;;;;;;27.96;27.66;99580.72;5047577;28;20832;-78
2022/07/20 04:12:50;;;;;;;9.75;4.13;;;;;;;28.00;27.64;99581.56;5047353;28;20025;-76
2022/07/20 04:15:15;;;;;;;8.47;3.20;;;;;;;28.05;27.22;99578.38;5047114;28;20094;-76
2022/07/20 04:17:41;;;;;;;5.23;2.40;;;;;;;28.07;27.83;99578.78;5051216;28;20254;-86
2022/07/20 04:20:07;;;;;;;12.68;3.70;;;;;;;28.12;27.63;99583.25;5051414;28;20735;-86
2022/07/20 04:22:32;;;;;;;8.75;3.50;;;;;;;28.12;27.52;99604.84;5049343;28;20025;-77
2022/07/20 04:24:57;;;;;;;9.30;2.93;;;;;;;28.09;27.44;99621.22;5046772;28;20025;-77
2022/07/20 04:27:23;;;;;;;9.32;3.65;;;;;;;28.07;27.49;99623.63;5047543;28;20281;-79
2022/07/20 04:29:48;;;;;;;9.05;3.58;;;;;;;28.08;27.87;99635.63;5047278;28;20044;-79
2022/07/20 04:32:14;;;;;;;7.33;3.53;;;;;;;28.07;28.03;99640.41;5047358;28;20041;-75
2022/07/20 04:34:39;;;;;;;12.10;4.80;;;;;;;28.05;27.76;99630.81;5046076;28;20630;-75
2022/07/20 04:37:04;;;;;;;11.73;4.25;;;;;;;28.01;28.17;99644.78;5046330;28;20428;-76
2022/07/20 04:39:29;;;;;;;8.13;4.10;;;;;;;28.00;27.99;99656.38;5046040;28;20029;-75
2022/07/20 04:41:55;;;;;;;8.30;3.03;;;;;;;28.02;28.44;99668.00;5046336;28;20307;-77
2022/07/20 04:44:20;;;;;;;9.97;2.97;;;;;;;27.95;28.25;99666.75;5046524;28;20265;-77
2022/07/20 04:46:45;;;;;;;10.60;3.05;;;;;;;27.92;28.47;99669.50;5059657;28;20032;-79
2022/07/20 04:49:11;;;;;;;7.10;3.37;;;;;;;27.94;28.58;99678.34;5065633;28;20029;-79
2022/07/20 04:51:37;;;;;;;8.93;2.75;;;;;;;27.93;28.53;99688.72;5045446;28;20444;-76
2022/07/20 04:54:03;;;;;;;9.13;4.00;;;;;;;27.96;28.66;99692.75;5046327;28;20029;-75
2022/07/20 04:56:28;;;;;;;8.85;3.70;;;;;;;27.85;28.64;99690.66;5046448;28;20032;-76
2022/07/20 04:58:55;;;;;;;10.48;3.40;;;;;;;27.82;28.75;99696.22;5046113;28;20119;-77
2022/07/20 05:01:24;;;;;;;7.53;3.60;;;;;;;27.84;28.75;99697.47;5045566;28;20398;-79
2022/07/20 05:03:50;;;;;;;7.70;3.90;;;;;;;27.86;28.81;99702.66;5046742;28;20040;-79
2022/07/20 05:06:15;;;;;;;7.95;3.55;;;;;;;27.85;28.87;99701.88;5049468;28;20086;-90
2022/07/20 05:08:41;;;;;;;6.93;3.57;;;;;;;27.87;28.61;99711.88;5070750;28;20132;-90
2022/07/20 05:11:06;;;;;;;15.90;3.30;;;;;;;27.90;28.94;99716.69;5052049;28;20347;-90
2022/07/20 05:13:32;;;;;;;9.80;4.22;;;;;;;27.85;29.00;99707.47;5053292;28;20116;-89
2022/07/20 05:15:57;;;;;;;18.42;4.70;;;;;;;27.87;29.04;99707.06;5053672;28;20113;-89
2022/07/20 05:18:22;;;;;;;8.05;3.60;;;;;;;27.87;28.91;99707.06;5053317;28;20056;-90
2022/07/20 05:20:48;;;;;;;8.90;3.92;;;;;;;27.87;29.05;99700.69;5052450;28;20032;-89
2022/07/20 05:23:13;;;;;;;9.27;4.40;;;;;;;27.88;29.07;99705.91;5052559;28;20530;-87
2022/07/20 05:25:39;;;;;;;7.97;3.83;;;;;;;27.84;29.28;99719.06;5052330;28;20282;-87
2022/07/20 05:28:06;;;;;;;5.70;3.08;;;;;;;27.84;29.36;99719.88;5046243;28;20109;-76
2022/07/20 05:30:31;;;;;;;9.95;3.38;;;;;;;27.84;29.16;99719.06;5045320;28;20119;-76
2022/07/20 05:32:57;;;;;;;7.37;2.97;;;;;;;27.84;29.18;99728.28;5046345;28;20563;-79
2022/07/20 05:35:22;;;;;;;9.57;3.83;;;;;;;27.96;29.72;99726.38;5046663;28;20257;-79
2022/07/20 05:37:47;;;;;;;6.68;3.40;;;;;;;27.94;29.71;99742.75;5045944;28;20484;-77
2022/07/20 05:40:13;;;;;;;22.33;5.10;;;;;;;27.90;29.54;99747.50;5044982;28;20037;-78
2022/07/20 05:42:38;;;;;;;11.35;3.65;;;;;;;27.90;29.56;99755.91;5047984;28;20598;-81
2022/07/20 05:45:04;;;;;;;8.50;4.63;;;;;;;27.90;29.52;99761.50;5048306;28;20140;-82
2022/07/20 05:47:30;;;;;;;7.00;3.67;;;;;;;27.90;29.67;99767.13;5039462;28;20032;-76
2022/07/20 05:49:57;;;;;;;7.68;3.90;;;;;;;27.88;29.89;99761.91;5044026;28;20033;-76
2022/07/20 05:52:22;;;;;;;19.65;4.55;;;;;;;27.92;30.15;99765.53;5047292;28;20068;-81
2022/07/20 05:54:47;;;;;;;6.30;2.80;;;;;;;27.93;30.18;99766.34;5048995;28;20309;-81
2022/07/20 05:57:12;;;;;;;10.10;3.97;;;;;;;27.91;30.25;99779.91;5049207;28;20732;-81
2022/07/20 05:59:38;;;;;;;8.40;3.37;;;;;;;27.94;30.64;99779.97;5048157;28;20087;-81
2022/07/20 06:02:03;;;;;;;8.23;3.60;;;;;;;27.97;30.69;99778.38;5046878;28;20805;-76
2022/07/20 06:04:28;;;;;;;14.73;4.43;;;;;;;28.06;30.35;99781.69;5044876;28;20303;-77
2022/07/20 06:06:54;;;;;;;7.70;3.83;;;;;;;28.04;30.40;99784.06;5045285;28;20045;-75
2022/07/20 06:09:19;;;;;;;11.70;4.40;;;;;;;28.07;30.36;99788.88;5044655;28;20273;-75
2022/07/20 06:11:44;;;;;;;8.93;4.33;;;;;;;28.05;30.95;99796.88;5047029;28;20039;-86
2022/07/20 06:14:09;;;;;;;9.20;4.67;;;;;;;27.87;31.39;99804.31;5051615;28;20032;-86
2022/07/20 06:16:35;;;;;;;12.50;5.67;;;;;;;27.64;31.46;99806.00;5052294;28;20033;-79
2022/07/20 06:19:00;;;;;;;10.18;5.13;;;;;;;27.47;31.79;99813.00;5050385;28;20768;-79
2022/07/20 06:21:26;;;;;;;14.45;5.07;;;;;;;27.44;32.21;99822.94;5051038;28;20108;-90
2022/07/20 06:23:51;;;;;;;9.10;4.70;;;;;;;27.51;32.20;99811.84;5055520;28;20033;-91
2022/07/20 06:26:16;;;;;;;17.40;5.83;;;;;;;27.42;32.35;99821.72;5054870;28;20273;-76
2022/07/20 06:28:41;;;;;;;12.80;5.43;;;;;;;27.33;32.56;99817.22;5048832;28;20057;-75
2022/07/20 06:31:07;;;;;;;9.03;4.80;;;;;;;27.19;32.89;99819.81;5048660;28;20068;-79
2022/07/20 06:33:32;;;;;;;11.85;6.07;;;;;;;27.15;33.24;99820.56;5049954;28;20032;-79
2022/07/20 06:35:58;;;;;;;8.20;5.05;;;;;;;27.18;33.43;99821.78;5049867;28;20029;-79
2022/07/20 06:38:23;;;;;;;20.95;6.72;;;;;;;27.26;33.98;99833.88;5049849;28;20120;-79
2022/07/20 06:40:48;;;;;;;13.27;6.68;;;;;;;27.23;33.88;99831.84;5049320;28;20357;-79
2022/07/20 06:43:13;;;;;;;12.82;6.28;;;;;;;27.25;34.08;99840.69;5055207;28;20412;-86
2022/07/20 06:45:39;;;;;;;11.80;7.70;;;;;;;27.25;34.51;99835.09;5055268;28;20091;-86
2022/07/20 06:48:04;;;;;;;16.10;6.65;;;;;;;27.37;34.78;99842.44;5049528;28;20036;-77
2022/07/20 06:50:29;;;;;;;11.98;8.20;;;;;;;27.43;35.01;99840.13;5048345;28;20547;-78
2022/07/20 06:52:55;;;;;;;18.52;9.05;;;;;;;27.32;35.81;99846.38;5053833;28;20040;-86
2022/07/20 06:55:20;;;;;;;11.85;7.82;;;;;;;27.43;35.54;99845.72;5059299;28;20035;-86
2022/07/20 06:57:46;;;;;;;16.00;8.93;;;;;;;27.37;36.67;99846.06;5049506;28;20064;-76
2022/07/20 07:00:12;;;;;;;19.60;13.13;;;;;;;27.33;37.21;99850.78;5047493;28;20051;-77
2022/07/20 07:02:38;;;;;;;21.50;13.00;;;;;;;27.32;37.64;99863.16;5048805;28;20025;-78
2022/07/20 07:05:04;;;;;;;25.92;13.52;;;;;;;27.35;38.07;99870.00;5050581;28;20040;-79
2022/07/20 07:07:29;;;;;;;18.55;12.73;;;;;;;27.34;38.85;99871.97;5057894;28;20037;-85
2022/07/20 07:09:55;;;;;;;18.85;12.32;;;;;;;27.19;39.78;99870.16;5049649;28;20032;-86
2022/07/20 07:12:21;;;;;;;20.65;14.25;;;;;;;27.24;39.31;99873.44;5049421;28;20060;-84
2022/07/20 07:14:46;;;;;;;20.70;12.70;;;;;;;27.33;39.56;99880.75;5053645;28;20059;-86
2022/07/20 07:17:11;;;;;;;27.40;14.55;;;;;;;27.31;39.44;99888.72;5051105;28;20029;-76
2022/07/20 07:19:38;;;;;;;68.93;15.93;;;;;;;27.25;39.65;99888.25;5046490;28;20520;-76
2022/07/20 07:22:04;;;;;;;16.67;12.98;;;;;;;27.28;39.89;99893.06;5051085;28;20029;-89
2022/07/20 07:24:29;;;;;;;22.15;13.98;;;;;;;27.19;40.38;99898.13;5054925;28;20487;-89
2022/07/20 07:26:54;;;;;;;30.43;15.37;;;;;;;27.27;40.56;99911.06;5051676;28;20448;-78
2022/07/20 07:29:20;;;;;;;24.05;16.20;;;;;;;27.29;40.56;99925.47;5047680;28;20102;-81
2022/07/20 07:31:45;;;;;;;21.50;16.80;;;;;;;27.29;41.11;99919.88;5049462;28;20069;-90
2022/07/20 07:34:10;;;;;;;25.48;17.38;;;;;;;27.30;41.03;99915.88;5061841;28;20047;-90
2022/07/20 07:36:36;;;;;;;25.07;16.80;;;;;;;27.33;41.02;99926.34;5068779;28;20029;-81
2022/07/20 07:39:01;;;;;;;23.77;15.85;;;;;;;27.30;41.22;99929.88;5053622;28;20457;-82
2022/07/20 07:41:27;;;;;;;25.13;17.83;;;;;;;27.38;41.26;99939.19;5052322;28;20440;-87
2022/07/20 07:43:52;;;;;;;24.92;16.90;;;;;;;27.34;41.42;99949.50;5054830;28;20260;-86
2022/07/20 07:46:17;;;;;;;27.87;18.07;;;;;;;27.34;41.67;99955.94;5053217;28;20056;-77
2022/07/20 07:48:43;;;;;;;27.70;16.50;;;;;;;27.35;41.58;99963.16;5047189;28;20740;-77
2022/07/20 07:51:08;;;;;;;29.40;17.33;;;;;;;27.50;41.60;99963.38;5046394;28;20083;-89
2022/07/20 07:53:33;;;;;;;41.40;17.35;;;;;;;27.49;41.87;99968.16;5054374;28;20567;-90
2022/07/20 07:55:59;;;;;;;29.77;17.07;;;;;;;27.48;41.87;99976.94;5054492;28;20606;-83
2022/07/20 07:58:24;;;;;;;24.75;17.63;;;;;;;27.41;42.14;99974.84;5051917;28;20033;-81
2022/07/20 08:00:50;;;;;;;24.10;17.67;;;;;;;27.52;41.99;99977.78;5051020;28;20071;-82
2022/07/20 08:03:15;;;;;;;28.27;17.23;;;;;;;27.60;42.03;99985.09;5053910;28;20071;-89
2022/07/20 08:05:41;;;;;;;26.90;16.77;;;;;;;27.47;42.42;99987.31;5053572;28;20025;-90
2022/07/20 08:08:10;;;;;;;24.70;19.20;;;;;;;27.55;42.48;99988.22;5046510;28;20072;-77
2022/07/20 08:10:36;;;;;;;26.67;18.23;;;;;;;27.60;42.19;99990.69;5045428;28;20274;-77
2022/07/20 08:13:03;;;;;;;27.02;19.15;;;;;;;27.64;42.32;99996.38;5049275;28;20086;-86
2022/07/20 08:15:28;;;;;;;27.55;17.80;;;;;;;27.64;41.82;99996.38;5048767;28;20032;-86
2022/07/20 08:17:53;;;;;;;25.27;17.02;;;;;;;27.77;41.38;100013.78;5047777;28;20025;-82
2022/07/20 08:20:21;;;;;;;26.00;18.87;;;;;;;27.82;41.34;100010.66;5046415;28;20036;-82
2022/07/20 08:22:47;;;;;;;31.42;19.02;;;;;;;27.69;41.28;100020.41;5047304;28;20250;-80
2022/07/20 08:25:13;;;;;;;25.20;18.48;;;;;;;27.83;40.90;100022.66;5046565;28;20183;-80
2022/07/20 08:27:38;;;;;;;26.80;20.25;;;;;;;27.90;40.84;100030.38;5047415;28;20176;-82
2022/07/20 08:30:04;;;;;;;26.47;19.73;;;;;;;27.95;40.53;100028.03;5046475;28;20542;-82
2022/07/20 08:32:29;;;;;;;26.52;20.42;;;;;;;28.10;40.55;100031.03;5047316;28;20057;-82
2022/07/20 08:34:54;;;;;;;24.10;19.30;;;;;;;28.06;40.21;100036.59;5046849;28;20051;-83
2022/07/20 08:37:20;;;;;;;28.70;19.50;;;;;;;28.08;39.75;100042.63;5046368;28;20036;-78
2022/07/20 08:39:45;;;;;;;29.50;18.43;;;;;;;28.15;39.31;100041.13;5045223;28;20145;-77
2022/07/20 08:42:11;;;;;;;29.93;19.83;;;;;;;28.12;40.40;100045.47;5046727;28;20250;-77
2022/07/20 08:44:39;;;;;;;37.53;20.95;;;;;;;28.24;39.97;100049.22;5045868;28;20285;-77
2022/07/20 08:47:05;;;;;;;26.65;22.17;;;;;;;28.14;40.10;100042.28;5046903;28;20480;-76
2022/07/20 08:49:31;;;;;;;29.02;21.17;;;;;;;28.39;40.19;100044.66;5045559;28;20124;-76
2022/07/20 08:51:58;;;;;;;28.73;19.30;;;;;;;28.50;39.38;100039.16;5044997;28;20032;-81
2022/07/20 08:54:23;;;;;;;25.80;19.55;;;;;;;28.42;39.65;100038.28;5046537;28;20036;-80
2022/07/20 08:56:48;;;;;;;41.97;22.13;;;;;;;28.54;39.79;100043.63;5046214;28;20075;-80
2022/07/20 08:59:14;;;;;;;27.70;21.27;;;;;;;28.61;39.67;100036.50;5045493;28;20094;-80
2022/07/20 09:02:00;;;;;;;33.80;22.67;;;;;;;28.72;39.39;100040.22;5045795;28;20072;-76
2022/07/20 09:04:25;;;;;;;38.05;23.02;;;;;;;28.86;39.23;100033.97;5045641;28;20702;-76
2022/07/20 09:06:51;;;;;;;25.20;20.80;;;;;;;28.88;39.21;100019.56;5045664;28;20115;-78
2022/07/20 09:09:18;;;;;;;32.20;19.27;;;;;;;29.05;38.96;100017.34;5044867;28;20091;-77
2022/07/20 09:11:43;;;;;;;35.00;23.63;;;;;;;29.07;38.67;100018.56;5045599;28;20250;-81
2022/07/20 09:14:09;;;;;;;31.17;22.48;;;;;;;29.15;38.69;100016.63;5045019;28;20056;-80
2022/07/20 09:16:50;;;;;;;28.57;20.47;;;;;;;29.33;38.58;100021.63;5046447;28;20136;-86
2022/07/20 09:19:16;;;;;;;36.25;22.63;;;;;;;29.31;38.23;100018.41;5049370;28;20300;-86
2022/07/20 09:21:42;;;;;;;26.45;20.17;;;;;;;29.43;38.13;100004.03;5047333;28;20118;-76
2022/07/20 09:24:10;;;;;;;30.35;20.85;;;;;;;29.63;37.71;100003.78;5045005;28;20094;-76
2022/07/20 09:26:37;;;;;;;29.45;20.75;;;;;;;29.78;37.49;99978.63;5045148;28;20614;-77
2022/07/20 09:29:05;;;;;;;27.23;20.58;;;;;;;29.94;37.45;99970.69;5044917;28;20056;-77
2022/07/20 09:31:35;;;;;;;31.83;21.95;;;;;;;29.98;37.16;99981.16;5045631;28;20029;-78
2022/07/20 09:34:06;;;;;;;34.10;23.13;;;;;;;30.16;37.20;99998.91;5045395;28;20214;-78
2022/07/20 09:36:34;;;;;;;26.80;18.77;;;;;;;30.11;36.66;99999.25;5045472;28;20519;-75
2022/07/20 09:39:08;;;;;;;29.50;20.65;;;;;;;30.18;36.89;99987.25;5044841;28;20581;-77
2022/07/20 09:41:35;;;;;;;27.05;19.33;;;;;;;30.31;36.58;99982.09;5025210;28;20033;-80
2022/07/20 09:44:03;;;;;;;24.73;19.42;;;;;;;30.39;36.20;99978.13;5025254;28;20508;-79
2022/07/20 09:46:31;;;;;;;26.08;18.73;;;;;;;30.61;36.29;99972.53;5036128;28;20411;-78
2022/07/20 09:49:01;;;;;;;19.77;16.20;;;;;;;30.61;35.59;99961.28;5044695;28;20086;-77
2022/07/20 09:51:31;;;;;;;29.08;19.83;;;;;;;30.63;35.60;99970.13;5043680;28;20052;-80
2022/07/20 09:54:03;;;;;;;25.15;19.08;;;;;;;30.81;35.50;99980.63;5045364;28;20485;-81
2022/07/20 09:56:30;;;;;;;34.58;19.17;;;;;;;30.96;35.08;99980.66;5043931;28;20456;-78
2022/07/20 09:58:57;;;;;;;22.98;16.63;;;;;;;30.97;35.01;99977.47;5043585;28;20025;-77
2022/07/20 10:01:25;;;;;;;26.27;18.55;;;;;;;30.71;35.42;99973.78;5042926;28;20052;-84
2022/07/20 10:03:54;;;;;;;31.40;18.45;;;;;;;30.92;34.46;99977.06;5047651;28;20025;-84
2022/07/20 10:06:21;;;;;;;32.25;18.58;;;;;;;31.09;34.28;99979.06;5050399;28;20044;-77
2022/07/20 10:08:47;;;;;;;23.90;16.67;;;;;;;30.97;34.72;99980.28;5046768;28;20033;-77
2022/07/20 10:11:14;;;;;;;27.17;17.63;;;;;;;31.34;34.48;99978.22;5043586;28;20043;-77
2022/07/20 10:13:41;;;;;;;20.38;14.88;;;;;;;31.37;33.86;99982.25;5043403;28;20044;-77
2022/07/20 10:16:23;;;;;;;20.38;15.75;;;;;;;30.98;34.11;99989.50;5043935;28;20118;-91
2022/07/20 10:18:48;;;;;;;21.50;15.63;;;;;;;31.18;33.90;100006.00;5047294;28;20021;-90
2022/07/20 10:21:33;;;;;;;23.45;16.23;;;;;;;31.75;33.15;100009.19;5047828;28;20048;-84
2022/07/20 10:24:22;;;;;;;21.67;15.65;;;;;;;31.90;32.44;100019.22;5045020;28;20031;-84
2022/07/20 10:26:51;;;;;;;19.58;14.07;;;;;;;31.78;32.79;100006.38;5045707;28;20471;-80
2022/07/20 10:29:31;;;;;;;18.70;14.60;;;;;;;32.02;32.70;100008.72;5044106;28;20049;-80
2022/07/20 10:32:14;;;;;;;25.27;15.80;;;;;;;32.09;32.53;100016.38;5044345;28;20064;-78
2022/07/20 10:34:45;;;;;;;24.42;16.67;;;;;;;32.13;32.41;100026.44;5045029;28;20411;-77
2022/07/20 10:37:39;;;;;;;23.67;17.08;;;;;;;32.20;32.66;100033.25;5045601;28;20090;-84
2022/07/20 10:40:11;;;;;;;25.08;16.17;;;;;;;32.16;31.95;100036.06;5045457;28;20036;-84
2022/07/20 10:42:38;;;;;;;18.73;14.88;;;;;;;32.11;32.32;100022.41;5030702;28;20037;-85
2022/07/20 10:45:15;;;;;;;22.15;15.32;;;;;;;32.37;32.42;100029.56;5038315;28;20029;-84
2022/07/20 10:47:55;;;;;;;19.63;13.05;;;;;;;32.57;32.16;100028.25;5042650;28;20036;-91
2022/07/20 10:50:28;;;;;;;22.55;14.52;;;;;;;32.56;31.71;100035.09;5046056;28;20496;-90
2022/07/20 10:53:13;;;;;;;19.83;16.98;;;;;;;32.48;31.59;100035.13;5045324;28;20033;-80
2022/07/20 10:55:38;;;;;;;19.23;13.88;;;;;;;32.57;31.93;100039.53;5040272;28;20044;-79
2022/07/20 10:58:08;;;;;;;22.37;15.00;;;;;;;32.52;31.48;100049.25;5044745;28;20029;-80
2022/07/20 11:00:39;;;;;;;18.30;13.98;;;;;;;32.60;31.70;100047.22;5043581;28;20045;-80
2022/07/20 11:03:20;;;;;;;24.38;14.98;;;;;;;32.53;31.55;100030.28;5049714;28;20494;-85
2022/07/20 11:05:46;;;;;;;15.02;13.02;;;;;;;32.55;31.67;100025.03;5029876;28;20590;-84
2022/07/20 11:08:13;;;;;;;22.90;15.25;;;;;;;32.59;32.15;100031.44;5030709;28;20035;-91
2022/07/20 11:10:40;;;;;;;22.95;14.27;;;;;;;32.66;32.00;100020.19;5042721;28;20074;-91
2022/07/20 11:13:10;;;;;;;18.77;14.57;;;;;;;32.54;32.66;100010.16;5048534;28;20130;-81
2022/07/20 11:15:47;;;;;;;20.08;14.55;;;;;;;32.80;32.29;100024.13;5048551;28;20036;-80
2022/07/20 11:18:19;;;;;;;26.40;15.02;;;;;;;32.90;31.15;100026.06;5049995;28;20056;-85
2022/07/20 11:20:50;;;;;;;24.45;16.38;;;;;;;33.00;31.48;100020.75;5039165;28;20332;-85
2022/07/20 11:23:17;;;;;;;20.90;14.18;;;;;;;33.15;31.62;100013.81;5028751;28;20029;-81
2022/07/20 11:25:52;;;;;;;21.42;15.50;;;;;;;33.23;31.56;100022.22;5027943;28;20042;-81
2022/07/20 11:28:24;;;;;;;18.48;13.98;;;;;;;33.14;31.59;100029.13;5030011;28;20382;-91